createdAt,value
2017-11-14T00:00:50.187Z,985
2017-11-14T00:01:52.172Z,985.1
2017-11-14T00:02:54.166Z,985.1
2017-11-14T00:03:56.219Z,985.1
2017-11-14T00:04:58.118Z,985.1
2017-11-14T00:06:00.051Z,985.1
2017-11-14T00:07:02.022Z,985.1
2017-11-14T00:08:03.980Z,985.1
2017-11-14T00:09:05.943Z,985.1
2017-11-14T00:10:07.878Z,985.1
2017-11-14T00:11:09.812Z,985.2
2017-11-14T00:12:11.656Z,985.1
2017-11-14T00:13:13.722Z,985.1
2017-11-14T00:14:15.783Z,985
2017-11-14T00:15:17.776Z,985.2
2017-11-14T00:16:20.286Z,985.1
2017-11-14T00:17:22.271Z,985.2
2017-11-14T00:18:24.221Z,985.1
2017-11-14T00:19:26.181Z,985.2
2017-11-14T00:20:28.084Z,985.2
2017-11-14T00:21:30.008Z,985.2
2017-11-14T00:22:31.915Z,985.1
2017-11-14T00:23:33.837Z,985.1
2017-11-14T00:24:35.757Z,985.1
2017-11-14T00:25:37.656Z,985.1
2017-11-14T00:26:39.502Z,985.2
2017-11-14T00:27:41.385Z,985.2
2017-11-14T00:28:43.246Z,985.2
2017-11-14T00:29:45.190Z,985.2
2017-11-14T00:30:47.138Z,985.2
2017-11-14T00:31:49.062Z,985.2
2017-11-14T00:32:50.970Z,985.2
2017-11-14T00:33:52.873Z,985.2
2017-11-14T00:34:54.830Z,985.2
2017-11-14T00:35:56.739Z,985.2
2017-11-14T00:36:58.692Z,985.2
2017-11-14T00:38:00.554Z,985.1
2017-11-14T00:39:02.494Z,985.1
2017-11-14T00:40:04.711Z,985.2
2017-11-14T00:41:06.624Z,985.2
2017-11-14T00:42:08.622Z,985.2
2017-11-14T00:43:10.524Z,985.3
2017-11-14T00:44:12.473Z,985.2
2017-11-14T00:45:14.408Z,985.3
2017-11-14T00:46:16.428Z,985.3
2017-11-14T00:47:18.399Z,985.3
2017-11-14T00:48:20.266Z,985.4
2017-11-14T00:49:22.190Z,985.4
2017-11-14T00:50:24.468Z,985.4
2017-11-14T00:51:26.373Z,985.3
2017-11-14T00:52:28.317Z,985.4
2017-11-14T00:53:30.305Z,985.4
2017-11-14T00:54:32.272Z,985.4
2017-11-14T00:55:34.648Z,985.3
2017-11-14T00:56:36.640Z,985.3
2017-11-14T00:57:38.566Z,985.4
2017-11-14T00:58:40.543Z,985.3
2017-11-14T00:59:42.510Z,985.3
2017-11-14T01:00:44.474Z,985.3
2017-11-14T01:01:46.515Z,985.3
2017-11-14T01:02:48.563Z,985.3
2017-11-14T01:03:50.526Z,985.3
2017-11-14T01:04:52.500Z,985.3
2017-11-14T01:05:54.470Z,985.3
2017-11-14T01:06:56.511Z,985.3
2017-11-14T01:07:58.404Z,985.3
2017-11-14T01:09:01.629Z,985.3
2017-11-14T01:10:03.452Z,985.3
2017-11-14T01:11:05.746Z,985.4
2017-11-14T01:12:07.710Z,985.4
2017-11-14T01:13:09.603Z,985.5
2017-11-14T01:14:11.527Z,985.5
2017-11-14T01:15:13.433Z,985.5
2017-11-14T01:16:15.379Z,985.5
2017-11-14T01:17:17.335Z,985.5
2017-11-14T01:18:19.303Z,985.5
2017-11-14T01:19:21.194Z,985.5
2017-11-14T01:20:23.117Z,985.5
2017-11-14T01:21:25.091Z,985.6
2017-11-14T01:22:27.040Z,985.5
2017-11-14T01:23:28.969Z,985.6
2017-11-14T01:24:30.904Z,985.6
2017-11-14T01:25:33.050Z,985.6
2017-11-14T01:26:35.545Z,985.6
2017-11-14T01:27:37.502Z,985.5
2017-11-14T01:28:39.462Z,985.5
2017-11-14T01:29:41.400Z,985.5
2017-11-14T01:30:43.311Z,985.6
2017-11-14T01:31:45.250Z,985.5
2017-11-14T01:32:47.197Z,985.5
2017-11-14T01:33:49.117Z,985.6
2017-11-14T01:34:51.034Z,985.6
2017-11-14T01:35:53.116Z,985.5
2017-11-14T01:36:55.107Z,985.6
2017-11-14T01:37:57.138Z,985.5
2017-11-14T01:38:59.013Z,985.5
2017-11-14T01:40:00.925Z,985.5
2017-11-14T01:41:02.793Z,985.5
2017-11-14T01:42:04.730Z,985.5
2017-11-14T01:43:06.691Z,985.5
2017-11-14T01:44:08.644Z,985.6
2017-11-14T01:45:10.559Z,985.5
2017-11-14T01:46:12.431Z,985.6
2017-11-14T01:47:14.406Z,985.5
2017-11-14T01:48:16.349Z,985.6
2017-11-14T01:49:18.290Z,985.5
2017-11-14T01:50:20.220Z,985.5
2017-11-14T01:51:22.149Z,985.6
2017-11-14T01:52:24.919Z,985.5
2017-11-14T01:53:26.916Z,985.5
2017-11-14T01:54:28.805Z,985.6
2017-11-14T01:55:30.877Z,985.6
2017-11-14T01:56:32.826Z,985.6
2017-11-14T01:57:34.730Z,985.5
2017-11-14T01:58:36.605Z,985.6
2017-11-14T01:59:38.532Z,985.5
2017-11-14T02:00:40.438Z,985.5
2017-11-14T02:01:42.384Z,985.5
2017-11-14T02:02:44.383Z,985.5
2017-11-14T02:03:46.488Z,985.5
2017-11-14T02:04:48.421Z,985.5
2017-11-14T02:05:50.324Z,985.5
2017-11-14T02:06:52.318Z,985.5
2017-11-14T02:07:54.286Z,985.5
2017-11-14T02:08:56.280Z,985.6
2017-11-14T02:09:58.192Z,985.5
2017-11-14T02:11:00.377Z,985.4
2017-11-14T02:12:02.313Z,985.5
2017-11-14T02:13:04.663Z,985.5
2017-11-14T02:14:06.637Z,985.5
2017-11-14T02:15:08.583Z,985.5
2017-11-14T02:16:10.436Z,985.6
2017-11-14T02:17:12.354Z,985.6
2017-11-14T02:18:14.280Z,985.5
2017-11-14T02:19:16.160Z,985.6
2017-11-14T02:20:18.105Z,985.6
2017-11-14T02:21:19.957Z,985.6
2017-11-14T02:22:21.974Z,985.6
2017-11-14T02:23:24.216Z,985.6
2017-11-14T02:24:26.165Z,985.6
2017-11-14T02:25:28.071Z,985.6
2017-11-14T02:26:29.997Z,985.6
2017-11-14T02:27:32.019Z,985.5
2017-11-14T02:28:34.003Z,985.5
2017-11-14T02:29:35.884Z,985.5
2017-11-14T02:30:37.874Z,985.6
2017-11-14T02:31:39.820Z,985.6
2017-11-14T02:32:41.829Z,985.5
2017-11-14T02:33:43.872Z,985.6
2017-11-14T02:34:45.716Z,985.6
2017-11-14T02:35:48.005Z,985.5
2017-11-14T02:36:49.959Z,985.6
2017-11-14T02:37:51.870Z,985.5
2017-11-14T02:38:53.888Z,985.5
2017-11-14T02:39:55.821Z,985.5
2017-11-14T02:40:57.816Z,985.4
2017-11-14T02:41:59.806Z,985.5
2017-11-14T02:43:01.812Z,985.4
2017-11-14T02:44:04.022Z,985.5
2017-11-14T02:45:05.917Z,985.5
2017-11-14T02:46:07.820Z,985.5
2017-11-14T02:47:09.823Z,985.6
2017-11-14T02:48:11.944Z,985.6
2017-11-14T02:49:14.316Z,985.6
2017-11-14T02:50:16.295Z,985.5
2017-11-14T02:51:18.214Z,985.6
2017-11-14T02:52:20.462Z,985.6
2017-11-14T02:53:22.309Z,985.5
2017-11-14T02:54:24.587Z,985.6
2017-11-14T02:55:26.652Z,985.6
2017-11-14T02:56:28.640Z,985.6
2017-11-14T02:57:30.865Z,985.7
2017-11-14T02:58:32.864Z,985.7
2017-11-14T02:59:35.355Z,985.7
2017-11-14T03:00:37.246Z,985.7
2017-11-14T03:01:39.155Z,985.8
2017-11-14T03:02:41.201Z,985.8
2017-11-14T03:03:43.144Z,985.7
2017-11-14T03:04:45.685Z,985.8
2017-11-14T03:05:47.590Z,985.8
2017-11-14T03:06:49.515Z,985.8
2017-11-14T03:07:51.471Z,985.9
2017-11-14T03:08:53.410Z,985.9
2017-11-14T03:09:55.388Z,985.9
2017-11-14T03:10:57.352Z,985.9
2017-11-14T03:11:59.260Z,985.9
2017-11-14T03:13:01.231Z,985.9
2017-11-14T03:14:03.196Z,985.9
2017-11-14T03:15:05.479Z,985.9
2017-11-14T03:16:07.440Z,985.9
2017-11-14T03:17:09.439Z,985.9
2017-11-14T03:18:11.398Z,985.8
2017-11-14T03:19:13.394Z,985.9
2017-11-14T03:20:15.368Z,985.9
2017-11-14T03:21:17.339Z,985.9
2017-11-14T03:22:19.221Z,985.9
2017-11-14T03:23:21.124Z,985.9
2017-11-14T03:24:23.066Z,985.9
2017-11-14T03:25:25.285Z,985.9
2017-11-14T03:26:27.377Z,986
2017-11-14T03:27:29.349Z,986
2017-11-14T03:28:31.221Z,986
2017-11-14T03:29:33.231Z,986
2017-11-14T03:30:35.368Z,986
2017-11-14T03:31:37.398Z,986
2017-11-14T03:32:39.317Z,986
2017-11-14T03:33:41.219Z,986.1
2017-11-14T03:34:43.268Z,986
2017-11-14T03:35:45.445Z,986.1
2017-11-14T03:36:47.385Z,986.1
2017-11-14T03:37:49.280Z,986.1
2017-11-14T03:38:51.230Z,986.1
2017-11-14T03:39:53.267Z,986.2
2017-11-14T03:40:55.207Z,986.2
2017-11-14T03:41:57.232Z,986.2
2017-11-14T03:42:59.157Z,986
2017-11-14T03:44:01.092Z,986.2
2017-11-14T03:45:03.068Z,986.1
2017-11-14T03:46:05.005Z,986.2
2017-11-14T03:47:07.050Z,986.2
2017-11-14T03:48:08.986Z,986.2
2017-11-14T03:49:10.899Z,986.2
2017-11-14T03:50:12.777Z,986.1
2017-11-14T03:51:15.011Z,986.2
2017-11-14T03:52:16.979Z,986.2
2017-11-14T03:53:18.852Z,986.2
2017-11-14T03:54:21.354Z,986.2
2017-11-14T03:55:23.239Z,986.2
2017-11-14T03:56:25.433Z,986.2
2017-11-14T03:57:27.407Z,986.2
2017-11-14T03:58:29.367Z,986.3
2017-11-14T03:59:31.377Z,986.2
2017-11-14T04:00:33.316Z,986.2
2017-11-14T04:01:35.232Z,986.2
2017-11-14T04:02:37.470Z,986.2
2017-11-14T04:03:39.432Z,986.2
2017-11-14T04:04:41.336Z,986.2
2017-11-14T04:05:44.009Z,986.2
2017-11-14T04:06:45.939Z,986.2
2017-11-14T04:07:47.906Z,986.2
2017-11-14T04:08:49.924Z,986.2
2017-11-14T04:09:51.868Z,986.2
2017-11-14T04:10:53.755Z,986.3
2017-11-14T04:11:55.719Z,986.2
2017-11-14T04:12:57.600Z,986.3
2017-11-14T04:13:59.480Z,986.3
2017-11-14T04:15:01.444Z,986.3
2017-11-14T04:16:03.400Z,986.3
2017-11-14T04:17:05.747Z,986.3
2017-11-14T04:18:07.655Z,986.3
2017-11-14T04:19:09.601Z,986.4
2017-11-14T04:20:11.622Z,986.4
2017-11-14T04:21:13.603Z,986.3
2017-11-14T04:22:15.548Z,986.4
2017-11-14T04:23:17.356Z,986.4
2017-11-14T04:24:19.297Z,986.4
2017-11-14T04:25:21.326Z,986.4
2017-11-14T04:26:23.273Z,986.4
2017-11-14T04:27:25.223Z,986.4
2017-11-14T04:28:27.199Z,986.4
2017-11-14T04:29:29.305Z,986.5
2017-11-14T04:30:31.207Z,986.4
2017-11-14T04:31:33.229Z,986.5
2017-11-14T04:32:35.538Z,986.5
2017-11-14T04:33:37.561Z,986.5
2017-11-14T04:34:39.479Z,986.5
2017-11-14T04:35:41.480Z,986.3
2017-11-14T04:36:43.398Z,986.5
2017-11-14T04:37:45.423Z,986.5
2017-11-14T04:38:47.363Z,986.5
2017-11-14T04:39:49.238Z,986.5
2017-11-14T04:40:51.381Z,986.5
2017-11-14T04:41:53.323Z,986.5
2017-11-14T04:42:55.549Z,986.5
2017-11-14T04:43:57.469Z,986.5
2017-11-14T04:44:59.327Z,986.5
2017-11-14T04:46:01.188Z,986.4
2017-11-14T04:47:03.169Z,986.5
2017-11-14T04:48:05.221Z,986.5
2017-11-14T04:49:07.183Z,986.5
2017-11-14T04:50:09.073Z,986.5
2017-11-14T04:51:10.972Z,986.6
2017-11-14T04:52:12.936Z,986.6
2017-11-14T04:53:15.122Z,986.5
2017-11-14T04:54:17.046Z,986.5
2017-11-14T04:55:18.984Z,986.6
2017-11-14T04:56:21.053Z,986.6
2017-11-14T04:57:23.118Z,986.6
2017-11-14T04:58:25.028Z,986.7
2017-11-14T04:59:26.971Z,986.6
2017-11-14T05:00:28.913Z,986.6
2017-11-14T05:01:31.688Z,986.7
2017-11-14T05:02:33.773Z,986.6
2017-11-14T05:03:36.053Z,986.6
2017-11-14T05:04:37.978Z,986.7
2017-11-14T05:05:39.918Z,986.6
2017-11-14T05:06:41.789Z,986.7
2017-11-14T05:07:43.771Z,986.6
2017-11-14T05:08:45.842Z,986.7
2017-11-14T05:09:47.828Z,986.6
2017-11-14T05:10:49.766Z,986.6
2017-11-14T05:11:51.692Z,986.6
2017-11-14T05:12:53.634Z,986.6
2017-11-14T05:13:55.581Z,986.7
2017-11-14T05:14:57.567Z,986.7
2017-11-14T05:15:59.546Z,986.7
2017-11-14T05:17:01.458Z,986.7
2017-11-14T05:18:03.583Z,986.6
2017-11-14T05:19:05.495Z,986.7
2017-11-14T05:20:07.401Z,986.7
2017-11-14T05:21:09.314Z,986.7
2017-11-14T05:22:11.187Z,986.7
2017-11-14T05:23:13.127Z,986.7
2017-11-14T05:24:15.090Z,986.7
2017-11-14T05:25:16.948Z,986.7
2017-11-14T05:26:18.838Z,986.7
2017-11-14T05:27:20.807Z,986.7
2017-11-14T05:28:22.780Z,986.7
2017-11-14T05:29:24.771Z,986.8
2017-11-14T05:30:26.667Z,986.8
2017-11-14T05:31:28.638Z,986.8
2017-11-14T05:32:30.562Z,986.8
2017-11-14T05:33:32.519Z,986.8
2017-11-14T05:34:34.811Z,986.8
2017-11-14T05:35:36.730Z,986.8
2017-11-14T05:36:38.695Z,986.8
2017-11-14T05:37:40.806Z,986.8
2017-11-14T05:38:42.761Z,986.8
2017-11-14T05:39:44.967Z,986.8
2017-11-14T05:40:47.008Z,986.9
2017-11-14T05:41:48.999Z,986.9
2017-11-14T05:42:50.927Z,986.9
2017-11-14T05:43:52.828Z,986.7
2017-11-14T05:44:55.146Z,986.9
2017-11-14T05:45:57.099Z,986.8
2017-11-14T05:46:59.022Z,986.8
2017-11-14T05:48:01.030Z,986.8
2017-11-14T05:49:03.005Z,986.8
2017-11-14T05:50:04.988Z,986.8
2017-11-14T05:51:07.494Z,986.8
2017-11-14T05:52:09.442Z,986.8
2017-11-14T05:53:11.407Z,986.8
2017-11-14T05:54:13.351Z,986.8
2017-11-14T05:55:15.427Z,986.8
2017-11-14T05:56:17.441Z,986.8
2017-11-14T05:57:19.403Z,986.8
2017-11-14T05:58:21.359Z,986.9
2017-11-14T05:59:23.306Z,986.8
2017-11-14T06:00:25.255Z,986.8
2017-11-14T06:01:27.637Z,986.9
2017-11-14T06:02:29.534Z,986.8
2017-11-14T06:03:31.470Z,986.8
2017-11-14T06:04:33.401Z,986.8
2017-11-14T06:05:35.324Z,986.9
2017-11-14T06:06:37.259Z,986.8
2017-11-14T06:07:39.941Z,986.9
2017-11-14T06:08:41.808Z,986.9
2017-11-14T06:09:43.753Z,986.9
2017-11-14T06:10:45.680Z,986.8
2017-11-14T06:11:47.587Z,986.9
2017-11-14T06:12:49.591Z,986.8
2017-11-14T06:13:51.601Z,986.9
2017-11-14T06:14:53.526Z,987
2017-11-14T06:15:55.421Z,987
2017-11-14T06:16:57.392Z,987
2017-11-14T06:17:59.333Z,987
2017-11-14T06:19:01.259Z,987
2017-11-14T06:20:03.143Z,987
2017-11-14T06:21:05.177Z,987
2017-11-14T06:22:07.567Z,987
2017-11-14T06:23:09.432Z,987
2017-11-14T06:24:11.291Z,987
2017-11-14T06:25:13.235Z,987
2017-11-14T06:26:15.458Z,987
2017-11-14T06:27:17.469Z,986.8
2017-11-14T06:28:19.478Z,987
2017-11-14T06:29:21.430Z,987
2017-11-14T06:30:23.307Z,987
2017-11-14T06:31:25.314Z,987.1
2017-11-14T06:32:27.210Z,987.1
2017-11-14T06:33:29.064Z,987.1
2017-11-14T06:34:31.065Z,987
2017-11-14T06:35:33.036Z,987
2017-11-14T06:36:35.827Z,987
2017-11-14T06:37:37.908Z,986.9
2017-11-14T06:38:39.988Z,987
2017-11-14T06:39:41.880Z,986.9
2017-11-14T06:40:44.049Z,986.9
2017-11-14T06:41:46.019Z,986.9
2017-11-14T06:42:47.899Z,987
2017-11-14T06:43:49.779Z,987.1
2017-11-14T06:44:51.668Z,987
2017-11-14T06:45:53.661Z,987
2017-11-14T06:46:55.560Z,987
2017-11-14T06:47:57.455Z,987
2017-11-14T06:48:59.283Z,986.9
2017-11-14T06:50:01.197Z,986.9
2017-11-14T06:51:03.100Z,987
2017-11-14T06:52:05.055Z,987
2017-11-14T06:53:06.989Z,987.1
2017-11-14T06:54:08.956Z,987
2017-11-14T06:55:10.926Z,987
2017-11-14T06:56:12.836Z,987.1
2017-11-14T06:57:14.748Z,987
2017-11-14T06:58:16.682Z,987.1
2017-11-14T06:59:18.645Z,987.1
2017-11-14T07:00:20.536Z,987.1
2017-11-14T07:01:22.502Z,987.1
2017-11-14T07:02:24.508Z,987.1
2017-11-14T07:03:26.431Z,987
2017-11-14T07:04:28.335Z,987.1
2017-11-14T07:05:30.385Z,987
2017-11-14T07:06:32.280Z,987.1
2017-11-14T07:07:34.257Z,987.1
2017-11-14T07:08:36.166Z,987.1
2017-11-14T07:09:38.204Z,987.1
2017-11-14T07:10:40.101Z,987.1
2017-11-14T07:11:42.026Z,987.2
2017-11-14T07:12:43.958Z,987.2
2017-11-14T07:13:45.827Z,987.1
2017-11-14T07:14:47.726Z,987.2
2017-11-14T07:15:50.003Z,987.2
2017-11-14T07:16:51.881Z,987.3
2017-11-14T07:17:53.826Z,987.3
2017-11-14T07:18:55.756Z,987.4
2017-11-14T07:19:57.667Z,987.3
2017-11-14T07:20:59.589Z,987.3
2017-11-14T07:22:01.593Z,987.3
2017-11-14T07:23:03.518Z,987.4
2017-11-14T07:24:05.467Z,987.4
2017-11-14T07:25:07.327Z,987.3
2017-11-14T07:26:09.188Z,987.4
2017-11-14T07:27:11.104Z,987.3
2017-11-14T07:28:13.116Z,987.4
2017-11-14T07:29:14.995Z,987.4
2017-11-14T07:30:17.084Z,987.3
2017-11-14T07:31:19.069Z,987.4
2017-11-14T07:32:21.021Z,987.4
2017-11-14T07:33:23.235Z,987.4
2017-11-14T07:34:25.186Z,987.4
2017-11-14T07:35:27.071Z,987.4
2017-11-14T07:36:28.965Z,987.5
2017-11-14T07:37:30.933Z,987.4
2017-11-14T07:38:32.932Z,987.4
2017-11-14T07:39:34.904Z,987.4
2017-11-14T07:40:36.793Z,987.4
2017-11-14T07:41:38.819Z,987.4
2017-11-14T07:42:40.703Z,987.4
2017-11-14T07:43:42.965Z,987.5
2017-11-14T07:44:44.924Z,987.5
2017-11-14T07:45:46.905Z,987.5
2017-11-14T07:46:48.853Z,987.4
2017-11-14T07:47:50.778Z,987.5
2017-11-14T07:48:52.793Z,987.4
2017-11-14T07:49:54.732Z,987.5
2017-11-14T07:50:56.665Z,987.5
2017-11-14T07:51:59.134Z,987.5
2017-11-14T07:53:01.471Z,987.4
2017-11-14T07:54:03.534Z,987.5
2017-11-14T07:55:05.459Z,987.5
2017-11-14T07:56:07.297Z,987.5
2017-11-14T07:57:09.320Z,987.5
2017-11-14T07:58:11.825Z,987.5
2017-11-14T07:59:14.021Z,987.6
2017-11-14T08:00:15.902Z,987.5
2017-11-14T08:01:17.848Z,987.6
2017-11-14T08:02:19.739Z,987.5
2017-11-14T08:03:22.286Z,987.6
2017-11-14T08:04:24.551Z,987.7
2017-11-14T08:05:26.399Z,987.6
2017-11-14T08:06:28.317Z,987.7
2017-11-14T08:07:30.401Z,987.6
2017-11-14T08:08:32.300Z,987.7
2017-11-14T08:09:34.493Z,987.6
2017-11-14T08:10:36.334Z,987.7
2017-11-14T08:11:38.417Z,987.7
2017-11-14T08:12:40.278Z,987.6
2017-11-14T08:13:42.258Z,987.7
2017-11-14T08:14:44.516Z,987.7
2017-11-14T08:15:46.423Z,987.8
2017-11-14T08:16:48.273Z,987.8
2017-11-14T08:17:50.195Z,987.8
2017-11-14T08:18:52.088Z,987.8
2017-11-14T08:19:54.023Z,987.7
2017-11-14T08:20:55.949Z,987.7
2017-11-14T08:21:57.949Z,987.6
2017-11-14T08:22:59.954Z,987.6
2017-11-14T08:24:01.932Z,987.6
2017-11-14T08:25:03.874Z,987.5
2017-11-14T08:26:06.113Z,987.6
2017-11-14T08:27:08.108Z,987.6
2017-11-14T08:28:10.030Z,987.7
2017-11-14T08:29:11.952Z,987.6
2017-11-14T08:30:14.119Z,987.7
2017-11-14T08:31:16.002Z,987.7
2017-11-14T08:32:17.909Z,987.7
2017-11-14T08:33:20.251Z,987.7
2017-11-14T08:34:22.207Z,987.7
2017-11-14T08:35:25.679Z,987.7
2017-11-14T08:36:27.629Z,987.7
2017-11-14T08:37:29.545Z,987.7
2017-11-14T08:38:31.486Z,987.7
2017-11-14T08:39:33.581Z,987.6
2017-11-14T08:40:35.789Z,987.6
2017-11-14T08:41:38.372Z,987.6
2017-11-14T08:42:40.242Z,987.6
2017-11-14T08:43:42.098Z,987.6
2017-11-14T08:44:43.965Z,987.6
2017-11-14T08:45:45.887Z,987.6
2017-11-14T08:46:47.852Z,987.6
2017-11-14T08:47:49.724Z,987.6
2017-11-14T08:48:51.602Z,987.6
2017-11-14T08:49:53.547Z,987.6
2017-11-14T08:50:55.834Z,987.6
2017-11-14T08:51:57.960Z,987.6
2017-11-14T08:53:00.036Z,987.6
2017-11-14T08:54:02.199Z,987.7
2017-11-14T08:55:04.102Z,987.6
2017-11-14T08:56:06.067Z,987.6
2017-11-14T08:57:08.023Z,987.6
2017-11-14T08:58:09.961Z,987.6
2017-11-14T08:59:11.833Z,987.6
2017-11-14T09:00:14.342Z,987.6
2017-11-14T09:01:16.378Z,987.6
2017-11-14T09:02:18.334Z,987.6
2017-11-14T09:03:20.195Z,987.6
2017-11-14T09:04:22.085Z,987.6
2017-11-14T09:05:24.151Z,987.6
2017-11-14T09:06:26.180Z,987.5
2017-11-14T09:07:28.055Z,987.5
2017-11-14T09:08:29.956Z,987.5
2017-11-14T09:09:31.835Z,987.5
2017-11-14T09:10:34.125Z,987.6
2017-11-14T09:11:36.239Z,987.5
2017-11-14T09:12:38.180Z,987.5
2017-11-14T09:13:40.113Z,987.5
2017-11-14T09:14:42.002Z,987.5
2017-11-14T09:15:43.910Z,987.5
2017-11-14T09:16:45.804Z,987.5
2017-11-14T09:17:47.686Z,987.4
2017-11-14T09:18:49.626Z,987.5
2017-11-14T09:19:51.511Z,987.5
2017-11-14T09:20:53.395Z,987.6
2017-11-14T09:21:55.280Z,987.6
2017-11-14T09:22:57.211Z,987.6
2017-11-14T09:23:59.158Z,987.6
2017-11-14T09:25:01.036Z,987.6
2017-11-14T09:26:02.959Z,987.7
2017-11-14T09:27:05.131Z,987.4
2017-11-14T09:28:07.135Z,987.6
2017-11-14T09:29:09.050Z,987.6
2017-11-14T09:30:11.024Z,987.7
2017-11-14T09:31:12.903Z,987.6
2017-11-14T09:32:14.803Z,987.8
2017-11-14T09:33:16.682Z,987.8
2017-11-14T09:34:18.579Z,987.8
2017-11-14T09:35:20.465Z,987.8
2017-11-14T09:36:22.363Z,987.8
2017-11-14T09:37:24.555Z,987.8
2017-11-14T09:38:26.399Z,987.8
2017-11-14T09:39:28.516Z,987.7
2017-11-14T09:40:30.448Z,987.8
2017-11-14T09:41:32.414Z,987.6
2017-11-14T09:42:34.367Z,987.6
2017-11-14T09:43:36.541Z,987.6
2017-11-14T09:44:38.519Z,987.6
2017-11-14T09:45:40.660Z,987.6
2017-11-14T09:46:42.574Z,987.7
2017-11-14T09:47:44.461Z,987.7
2017-11-14T09:48:46.324Z,987.7
2017-11-14T09:49:48.199Z,987.6
2017-11-14T09:50:50.081Z,987.7
2017-11-14T09:51:51.963Z,987.6
2017-11-14T09:52:53.848Z,987.6
2017-11-14T09:53:55.728Z,987.7
2017-11-14T09:54:57.647Z,987.6
2017-11-14T09:55:59.621Z,987.7
2017-11-14T09:57:01.554Z,987.7
2017-11-14T09:58:03.751Z,987.7
2017-11-14T09:59:05.686Z,987.6
2017-11-14T10:00:07.670Z,987.7
2017-11-14T10:01:09.570Z,987.5
2017-11-14T10:02:11.576Z,987.6
2017-11-14T10:03:13.773Z,987.4
2017-11-14T10:04:15.680Z,987.6
2017-11-14T10:05:17.784Z,987.6
2017-11-14T10:06:19.721Z,987.6
2017-11-14T10:07:21.668Z,987.6
2017-11-14T10:08:23.594Z,987.5
2017-11-14T10:09:25.547Z,987.5
2017-11-14T10:10:27.509Z,987.5
2017-11-14T10:11:29.665Z,987.6
2017-11-14T10:12:31.620Z,987.6
2017-11-14T10:13:33.549Z,987.6
2017-11-14T10:14:35.473Z,987.7
2017-11-14T10:15:37.364Z,987.6
2017-11-14T10:16:39.246Z,987.6
2017-11-14T10:17:41.128Z,987.6
2017-11-14T10:18:43.054Z,987.5
2017-11-14T10:19:44.939Z,987.5
2017-11-14T10:20:46.806Z,987.4
2017-11-14T10:21:48.706Z,987.4
2017-11-14T10:22:50.893Z,987.4
2017-11-14T10:23:52.888Z,987.5
2017-11-14T10:24:54.786Z,987.4
2017-11-14T10:25:56.675Z,987.4
2017-11-14T10:26:58.573Z,987.5
2017-11-14T10:28:00.496Z,987.4
2017-11-14T10:29:02.439Z,987.5
2017-11-14T10:30:04.366Z,987.5
2017-11-14T10:31:06.222Z,987.5
2017-11-14T10:32:08.109Z,987.5
2017-11-14T10:33:10.330Z,987.5
2017-11-14T10:34:12.265Z,987.6
2017-11-14T10:35:14.419Z,987.5
2017-11-14T10:36:16.402Z,987.4
2017-11-14T10:37:18.276Z,987.5
2017-11-14T10:38:20.222Z,987.5
2017-11-14T10:39:22.122Z,987.5
2017-11-14T10:40:24.107Z,987.4
2017-11-14T10:41:26.058Z,987.5
2017-11-14T10:42:28.025Z,987.5
2017-11-14T10:43:30.174Z,987.5
2017-11-14T10:44:32.335Z,987.5
2017-11-14T10:45:34.211Z,987.4
2017-11-14T10:46:36.104Z,987.4
2017-11-14T10:47:37.985Z,987.4
2017-11-14T10:48:40.076Z,987.5
2017-11-14T10:49:42.065Z,987.5
2017-11-14T10:50:44.043Z,987.5
2017-11-14T10:51:45.883Z,987.5
2017-11-14T10:52:47.772Z,987.6
2017-11-14T10:53:49.685Z,987.5
2017-11-14T10:54:51.675Z,987.6
2017-11-14T10:55:53.551Z,987.5
2017-11-14T10:56:55.437Z,987.5
2017-11-14T10:57:57.406Z,987.6
2017-11-14T10:58:59.358Z,987.5
2017-11-14T11:00:01.281Z,987.5
2017-11-14T11:01:03.176Z,987.5
2017-11-14T11:02:05.107Z,987.5
2017-11-14T11:03:07.077Z,987.5
2017-11-14T11:04:09.073Z,987.5
2017-11-14T11:05:10.989Z,987.6
2017-11-14T11:06:12.947Z,987.4
2017-11-14T11:07:14.858Z,987.6
2017-11-14T11:08:16.826Z,987.6
2017-11-14T11:09:18.806Z,987.6
2017-11-14T11:10:20.741Z,987.6
2017-11-14T11:11:22.623Z,987.6
2017-11-14T11:12:24.576Z,987.5
2017-11-14T11:13:26.482Z,987.6
2017-11-14T11:14:28.395Z,987.6
2017-11-14T11:15:30.417Z,987.6
2017-11-14T11:16:32.264Z,987.6
2017-11-14T11:17:34.320Z,987.6
2017-11-14T11:18:36.447Z,987.6
2017-11-14T11:19:38.364Z,987.6
2017-11-14T11:20:40.306Z,987.5
2017-11-14T11:21:42.174Z,987.4
2017-11-14T11:22:44.325Z,987.5
2017-11-14T11:23:46.270Z,987.4
2017-11-14T11:24:48.306Z,987.4
2017-11-14T11:25:50.260Z,987.3
2017-11-14T11:26:52.214Z,987.4
2017-11-14T11:27:54.136Z,987.4
2017-11-14T11:28:56.039Z,987.4
2017-11-14T11:29:58.015Z,987.5
2017-11-14T11:31:00.220Z,987.4
2017-11-14T11:32:02.186Z,987.4
2017-11-14T11:33:04.034Z,987.3
2017-11-14T11:34:05.954Z,987.5
2017-11-14T11:35:08.070Z,987.4
2017-11-14T11:36:09.971Z,987.5
2017-11-14T11:37:11.880Z,987.5
2017-11-14T11:38:13.865Z,987.5
2017-11-14T11:39:15.806Z,987.4
2017-11-14T11:40:17.796Z,987.5
2017-11-14T11:41:19.678Z,987.3
2017-11-14T11:42:21.619Z,987.3
2017-11-14T11:43:23.601Z,987.4
2017-11-14T11:44:25.406Z,987.4
2017-11-14T11:45:27.359Z,987.3
2017-11-14T11:46:29.306Z,987.3
2017-11-14T11:47:31.178Z,987.4
2017-11-14T11:48:33.086Z,987.4
2017-11-14T11:49:35.064Z,987.3
2017-11-14T11:50:36.980Z,987.4
2017-11-14T11:51:38.901Z,987.4
2017-11-14T11:52:40.805Z,987.4
2017-11-14T11:53:42.759Z,987.4
2017-11-14T11:54:44.618Z,987.3
2017-11-14T11:55:46.473Z,987.3
2017-11-14T11:56:48.715Z,987.3
2017-11-14T11:57:50.783Z,987.3
2017-11-14T11:58:52.691Z,987.3
2017-11-14T11:59:54.683Z,987.3
2017-11-14T12:00:56.609Z,987.3
2017-11-14T12:01:58.551Z,987.3
2017-11-14T12:03:00.491Z,987.3
2017-11-14T12:04:02.367Z,987.3
2017-11-14T12:05:04.264Z,987.2
2017-11-14T12:06:06.757Z,987.2
2017-11-14T12:07:08.673Z,987.2
2017-11-14T12:08:10.718Z,987.2
2017-11-14T12:09:12.598Z,987.2
2017-11-14T12:10:14.520Z,987.2
2017-11-14T12:11:16.373Z,987.2
2017-11-14T12:12:18.419Z,987.2
2017-11-14T12:13:20.359Z,987.2
2017-11-14T12:14:22.258Z,987
2017-11-14T12:15:24.147Z,987
2017-11-14T12:16:26.340Z,987
2017-11-14T12:17:28.484Z,987
2017-11-14T12:18:30.413Z,987
2017-11-14T12:19:32.405Z,987
2017-11-14T12:20:34.351Z,987
2017-11-14T12:21:36.282Z,987
2017-11-14T12:22:38.266Z,987
2017-11-14T12:23:40.149Z,987
2017-11-14T12:24:42.130Z,987
2017-11-14T12:25:44.016Z,987
2017-11-14T12:26:45.884Z,987
2017-11-14T12:27:47.920Z,987
2017-11-14T12:28:49.754Z,986.9
2017-11-14T12:29:51.642Z,987
2017-11-14T12:30:53.754Z,987
2017-11-14T12:31:55.687Z,987
2017-11-14T12:32:57.645Z,987.1
2017-11-14T12:33:59.586Z,987.1
2017-11-14T12:35:01.525Z,987.1
2017-11-14T12:36:03.438Z,987
2017-11-14T12:37:05.313Z,987.1
2017-11-14T12:38:07.219Z,987.1
2017-11-14T12:39:09.166Z,987
2017-11-14T12:40:11.117Z,986.9
2017-11-14T12:41:12.986Z,987
2017-11-14T12:42:14.981Z,987
2017-11-14T12:43:17.125Z,987.1
2017-11-14T12:44:19.160Z,986.9
2017-11-14T12:45:21.109Z,986.9
2017-11-14T12:46:22.969Z,986.9
2017-11-14T12:47:24.890Z,986.9
2017-11-14T12:48:26.899Z,987
2017-11-14T12:49:28.920Z,986.9
2017-11-14T12:50:30.790Z,987
2017-11-14T12:51:32.759Z,987
2017-11-14T12:52:34.702Z,986.9
2017-11-14T12:53:36.639Z,986.9
2017-11-14T12:54:38.582Z,987
2017-11-14T12:55:40.472Z,986.9
2017-11-14T12:56:42.392Z,986.9
2017-11-14T12:57:44.243Z,986.9
2017-11-14T12:58:46.228Z,986.8
2017-11-14T12:59:48.929Z,986.8
2017-11-14T13:00:50.831Z,986.8
2017-11-14T13:01:52.744Z,986.9
2017-11-14T13:02:54.634Z,986.9
2017-11-14T13:03:56.604Z,986.9
2017-11-14T13:04:58.500Z,986.8
2017-11-14T13:06:00.345Z,986.9
2017-11-14T13:07:02.324Z,987
2017-11-14T13:08:04.284Z,986.9
2017-11-14T13:09:06.208Z,986.9
2017-11-14T13:10:08.165Z,986.9
2017-11-14T13:11:10.651Z,986.8
2017-11-14T13:12:12.771Z,986.8
2017-11-14T13:13:14.922Z,986.9
2017-11-14T13:14:17.200Z,986.9
2017-11-14T13:15:19.152Z,986.9
2017-11-14T13:16:21.082Z,986.7
2017-11-14T13:17:22.969Z,986.8
2017-11-14T13:18:24.873Z,986.8
2017-11-14T13:19:26.988Z,986.9
2017-11-14T13:20:28.918Z,986.9
2017-11-14T13:21:30.788Z,986.9
2017-11-14T13:22:32.689Z,986.9
2017-11-14T13:23:34.641Z,986.9